Terminal Aerodrome Forecast
Issued by NWS Wilmington, NC

Home | Current Version | Previous Version | Text Only | Print | Product List | Glossary On
Versions: 1 2 3 4 5 6 7 8 9 10 11 12 13 14 15 16 17 18 19 20 21 22
000
FTUS42 KILM 261100
TAFILM
TAF
KILM 261127Z 2612/2712 28005KT P6SM SCT008 SCT050 BKN110
      TEMPO 2614/2616 BKN025
     FM261700 23005KT P6SM VCSH BKN035
     FM262000 20009KT P6SM SCT040 SCT250
     FM270000 22005KT P6SM SCT050=

USA.gov is the U.S. government's official web portal to all federal, state and local government web resources and services.